• Join FlightAware (Why Join?)
  • Login
  • US Flag 
06:34AM EST


 

Airport Tracker/Info


-or-


 

Live Flight TrackerFlight Track Log ✈ DAL6225 ✈ 16-Apr-2013 ✈ KMSN - KLGA

Flight Track Log - Related Links

Times and Time Zones

All times are in EDT time to prevent confusion due to time zone crossing. See the DAL6225 flight status page for this flight to view local times or setup timezone preferences in your user account.

Time Position Orientation Groundspeed Altitude Reporting Facility
EDT Latitude Longitude Course Direction KTS MPH feet Rate Location/Type
08:28AM 43.1658 -89.2925 94° East 185 213 3,100  Level Chicago Center
08:29AM 43.1606 -89.1986 94° East 229 264 5,300 2,177 Climbing Chicago Center
08:30AM 43.1561 -89.0883 93° East 272 313 7,600 2,226 Climbing Chicago Center
08:31AM 43.1506 -88.9658 94° East 309 356 9,900 2,032 Climbing Chicago Center
08:32AM 43.1433 -88.8092 94° East 347 399 11,800 1,742 Climbing Chicago Center
08:33AM 43.1350 -88.6561 94° East 399 459 13,500 1,659 Climbing Chicago Center
08:34AM 43.1275 -88.4942 94° East 425 489 15,200 1,756 Climbing Chicago Center
08:35AM 43.1183 -88.3233 94° East 450 518 17,100 1,887 Climbing Chicago Center
08:37AM 43.1244 -88.1194 88° East 462 532 19,100 1,839 Climbing Chicago Center
08:38AM 43.1333 -87.9406 86° East 472 543 20,900 1,500 Climbing Chicago Center
08:39AM 43.1422 -87.7581 86° East 482 555 22,200 1,210 Climbing Chicago Center
08:40AM 43.1500 -87.5683 87° East 498 573 23,400 1,210 Climbing Chicago Center
08:41AM 43.1589 -87.3508 87° East 514 592 24,700 1,220 Climbing Chicago Center
08:42AM 43.1683 -87.1528 86° East 522 601 25,900 1,122 Climbing Chicago Center
08:43AM 43.1744 -86.9547 88° East 521 600 27,000 532 Climbing Chicago Center
08:44AM 43.1942 -86.7575 82° East 521 600 27,000 97 Level Chicago Center
08:45AM 43.2317 -86.5678 75° East 518 596 27,200 629 Climbing Chicago Center
08:46AM 43.2692 -86.3750 75° East 520 598 28,300 919 Climbing Chicago Center
08:47AM 43.3056 -86.1786 76° East 524 603 29,100 976 Climbing Chicago Center
08:48AM 43.3444 -85.9778 75° East 532 612 30,300 1,073 Climbing Chicago Center
08:49AM 43.3875 -85.7794 73° East 536 617 31,300 1,113 Climbing Chicago Center
08:50AM 43.4108 -85.5397 82° East 511 588 32,600 1,210 Climbing Chicago Center
08:51AM 43.4000 -85.3406 94° East 518 596 33,800 878 Climbing Chicago Center
08:52AM 43.3894 -85.1414 94° East 521 600 34,400 585 Climbing Chicago Center
08:53AM 43.3800 -84.9411 94° East 524 603 35,000 300 Climbing Chicago Center
08:54AM 43.3694 -84.7303 94° East 527 606 35,000  Level Cleveland Center
08:55AM 43.3581 -84.5239 94° East 527 606 35,000  Level Cleveland Center
08:56AM 43.3481 -84.3233 94° East 527 606 35,000  Level Cleveland Center
08:57AM 43.3375 -84.1256 94° East 527 606 35,000  Level Cleveland Center
08:58AM 43.3283 -83.9425 94° East 522 601 35,000  Level Cleveland Center
08:59AM 43.3158 -83.7247 94° East 522 601 35,000  Level Cleveland Center
09:00AM 43.3044 -83.5217 94° East 522 601 35,000  Level Cleveland Center
09:01AM 43.2925 -83.3214 95° East 528 608 35,000  Level Cleveland Center
09:02AM 43.2806 -83.1183 95° East 528 608 35,000 50 Level Cleveland Center
09:03AM 43.2661 -82.9181 96° East 528 608 35,100 550 Climbing Cleveland Center
09:04AM 43.2553 -82.7181 94° East 528 608 36,100 1,009 Climbing Cleveland Center
09:05AM 43.2333 -82.5333 99° East 530 610 37,000 478 Climbing Toronto Center
09:06AM 43.2167 -82.3333 96° East 530 610 37,000  Level Toronto Center
09:07AM 43.2000 -82.1333 96° East 530 610 37,000  Level Toronto Center
09:08AM 43.1833 -81.9167 96° East 530 610 37,000  Level Toronto Center
09:09AM 43.1833 -81.7333 90° East 530 610 37,000  Level Toronto Center
09:10AM 43.1667 -81.5333 96° East 530 610 37,000  Level Toronto Center
09:11AM 43.1500 -81.3167 96° East 530 610 37,000  Level Toronto Center
09:12AM 43.1333 -81.1333 97° East 530 610 37,000  Level Toronto Center
09:13AM 43.1167 -80.9333 96° East 540 621 37,000  Level Toronto Center
09:14AM 43.1167 -80.7333 90° East 530 610 37,000  Level Toronto Center
09:15AM 43.1000 -80.5167 96° East 520 598 37,000  Level Toronto Center
09:16AM 43.0833 -80.3333 97° East 520 598 37,000  Level Toronto Center
09:17AM 43.0500 -80.1333 103° East 520 598 37,000  Level Toronto Center
09:18AM 43.0333 -79.9333 96° East 530 610 37,000  Level Toronto Center
09:19AM 43.0167 -79.7167 96° East 540 621 37,000  Level Toronto Center
09:20AM 43.0000 -79.5500 98° East 530 610 37,000  Level Toronto Center
09:21AM 42.9833 -79.3333 96° East 530 610 37,000  Level Toronto Center
09:22AM 42.9667 -79.1333 96° East 530 610 37,000  Level Toronto Center
09:23AM 42.9500 -78.9333 96° East 530 610 37,000  Level Toronto Center
09:24AM 42.9333 -78.7167 96° East 520 598 37,000  Level Toronto Center
09:24AM 42.9369 -78.7144 24° Northeast 521 600 37,000  Level Cleveland Center
09:25AM 42.9169 -78.5222 98° East 521 600 37,000  Level Cleveland Center
09:26AM 42.8939 -78.2850 97° East 521 600 37,000  Level Cleveland Center
09:27AM 42.8731 -78.0903 98° East 521 600 37,000  Level Cleveland Center
09:28AM 42.8522 -77.8983 98° East 521 600 37,000  Level Cleveland Center
09:29AM 42.8303 -77.6869 98° East 516 594 37,000  Level Cleveland Center
09:30AM 42.8044 -77.4928 100° East 516 594 37,000  Level Cleveland Center
09:32AM 42.7483 -77.1147 101° East 539 620 37,000  Level Boston Center
09:33AM 42.7206 -76.9231 101° East 526 605 37,000  Level Boston Center
09:34AM 42.6925 -76.7289 101° East 521 600 37,000  Level Boston Center
09:35AM 42.6642 -76.5375 101° East 521 600 37,000  Level Boston Center
09:36AM 42.6356 -76.3436 101° East 521 600 37,000 -443 Level Boston Center
09:37AM 42.6081 -76.1697 102° East 521 600 36,100 -966 Descending Boston Center
09:38AM 42.5294 -76.0186 125° Southeast 500 575 35,100 -1,026 Descending Boston Center
09:39AM 42.4225 -75.9056 142° Southeast 480 552 34,100 -992 Descending Boston Center
09:40AM 42.3181 -75.7789 138° Southeast 486 559 33,100 -1,033 Descending Boston Center
09:41AM 42.2589 -75.5850 112° Southeast 491 565 32,000 -1,140 Descending Boston Center
09:42AM 42.2389 -75.3933 98° East 491 565 30,800 -2,150 Descending Boston Center
09:43AM 42.2186 -75.2072 98° East 491 565 27,700 -1,983 Descending Boston Center
09:44AM 42.1992 -75.0578 100° East 479 551 26,900 -403 Descending Boston Center
09:45AM 42.1839 -74.9058 98° East 443 510 26,900 -1,033 Level Boston Center
09:46AM 42.1642 -74.7508 100° East 419 482 24,800 -2,132 Descending Boston Center
09:47AM 42.1464 -74.5964 99° East 419 482 22,600 -2,186 Descending Boston Center
09:48AM 42.1283 -74.4556 100° East 405 466 20,500 -2,186 Descending Boston Center
09:49AM 42.1122 -74.3011 98° East 385 443 18,300 -1,579 Descending Boston Center
09:51AM 42.0411 -74.1844 129° Southeast 330 380 17,000 -591 Descending Boston Center
09:52AM 41.9583 -74.1347 156° South 324 373 17,000  Level Boston Center
09:53AM 41.8736 -74.0906 159° South 324 373 17,000  Level Boston Center
09:54AM 41.7722 -74.0350 158° South 330 380 17,000 -99 Level Boston Center
09:55AM 41.6978 -73.9914 156° South 330 380 16,800 -1,091 Descending Boston Center
09:56AM 41.6006 -73.9392 158° South 330 380 14,800 -2,049 Descending Boston Center
09:57AM 41.5000 -73.8833 157° South 331 381 12,600 -1,951 Descending New York TRACON
09:58AM 41.4167 -73.8500 163° South 318 366 10,800 -1,750 Descending New York TRACON
09:59AM 41.3500 -73.8000 151° Southeast 296 341 9,100 -1,600 Descending New York TRACON
10:00AM 41.2833 -73.7500 151° Southeast 266 306 7,600 -1,500 Descending New York TRACON
10:01AM 41.2167 -73.6833 143° Southeast 265 305 6,100 -1,200 Descending New York TRACON
10:02AM 41.1667 -73.6667 166° South 241 277 5,200 -1,000 Descending New York TRACON
10:03AM 41.1167 -73.6667 180° South 199 229 4,200 -600 Descending New York TRACON
10:04AM 41.0667 -73.6500 166° South 166 191 4,000 -100 Descending New York TRACON
10:05AM 41.0167 -73.6667 194° South 161 185 4,000 -105 Level New York TRACON
10:06AM 40.9833 -73.7000 217° Southwest 160 184 3,800 -333 Descending New York TRACON
10:07AM 40.9500 -73.7333 217° Southwest 156 180 3,300 -381 Descending New York TRACON
10:08AM 40.9000 -73.7667 207° Southwest 159 183 3,000 -579 Descending New York TRACON
10:09AM 40.8833 -73.8000 237° Southwest 138 159 2,200 -842 Descending New York TRACON
10:10AM 40.8500 -73.8167 201° Southwest 125 144 1,400 -700 Descending New York TRACON
10:11AM 40.8167 -73.8500 217° Southwest 124 143 800 -600 Descending New York TRACON
10:13AM 40.7772 -73.8726 180° South  Level Estimated